createdAt,value
2018-07-13T00:02:13.518Z,7.83
2018-07-13T00:04:41.916Z,7.30
2018-07-13T00:07:10.333Z,8.10
2018-07-13T00:09:38.713Z,6.60
2018-07-13T00:12:07.155Z,7.40
2018-07-13T00:14:35.625Z,8.07
2018-07-13T00:17:04.031Z,8.60
2018-07-13T00:19:32.556Z,7.73
2018-07-13T00:22:00.910Z,7.90
2018-07-13T00:24:29.389Z,7.47
2018-07-13T00:26:57.839Z,12.43
2018-07-13T00:29:26.236Z,7.83
2018-07-13T00:31:54.717Z,7.87
2018-07-13T00:34:23.124Z,7.40
2018-07-13T00:36:51.491Z,7.77
2018-07-13T00:39:19.892Z,8.20
2018-07-13T00:41:48.292Z,8.33
2018-07-13T00:44:16.673Z,9.60
2018-07-13T00:46:45.108Z,8.23
2018-07-13T00:49:13.498Z,9.20
2018-07-13T00:51:41.945Z,7.70
2018-07-13T00:54:10.356Z,7.77
2018-07-13T00:56:38.744Z,8.70
2018-07-13T00:59:07.180Z,10.07
2018-07-13T01:01:35.632Z,8.77
2018-07-13T01:04:04.041Z,8.17
2018-07-13T01:06:32.429Z,8.40
2018-07-13T01:09:00.867Z,7.80
2018-07-13T01:11:28.941Z,8.77
2018-07-13T01:13:57.309Z,8.20
2018-07-13T01:16:25.377Z,8.00
2018-07-13T01:18:53.773Z,8.20
2018-07-13T01:21:21.861Z,8.30
2018-07-13T01:23:50.290Z,8.53
2018-07-13T01:26:18.612Z,8.07
2018-07-13T01:28:47.026Z,7.80
2018-07-13T01:31:15.426Z,8.47
2018-07-13T01:33:43.821Z,8.40
2018-07-13T01:36:11.982Z,8.27
2018-07-13T01:38:40.297Z,7.50
2018-07-13T01:41:08.665Z,8.03
2018-07-13T01:43:37.017Z,8.17
2018-07-13T01:46:05.363Z,10.53
2018-07-13T01:48:33.703Z,7.60
2018-07-13T01:51:02.092Z,10.13
2018-07-13T01:53:30.468Z,9.67
2018-07-13T01:55:58.936Z,10.13
2018-07-13T01:58:26.999Z,8.50
2018-07-13T02:00:55.064Z,8.17
2018-07-13T02:03:23.536Z,9.47
2018-07-13T02:05:51.897Z,8.30
2018-07-13T02:08:20.291Z,8.37
2018-07-13T02:10:48.647Z,8.40
2018-07-13T02:13:17.038Z,10.77
2018-07-13T02:15:45.404Z,9.20
2018-07-13T02:18:13.789Z,8.80
2018-07-13T02:20:42.207Z,8.53
2018-07-13T02:23:10.308Z,8.47
2018-07-13T02:25:38.641Z,9.10
2018-07-13T02:28:07.044Z,9.23
2018-07-13T02:30:35.380Z,8.97
2018-07-13T02:33:03.734Z,8.53
2018-07-13T02:35:32.512Z,9.10
2018-07-13T02:38:00.856Z,9.17
2018-07-13T02:40:28.984Z,9.80
2018-07-13T02:42:57.341Z,13.80
2018-07-13T02:45:25.724Z,9.43
2018-07-13T02:47:54.212Z,8.67
2018-07-13T02:50:22.630Z,9.00
2018-07-13T02:52:51.040Z,12.50
2018-07-13T02:55:19.502Z,8.80
2018-07-13T02:57:47.877Z,9.07
2018-07-13T03:00:16.264Z,9.53
2018-07-13T03:02:44.667Z,10.03
2018-07-13T03:05:13.031Z,9.57
2018-07-13T03:07:41.407Z,12.00
2018-07-13T03:10:09.461Z,11.43
2018-07-13T03:12:37.848Z,9.30
2018-07-13T03:15:06.534Z,12.30
2018-07-13T03:17:34.920Z,12.60
2018-07-13T03:20:03.337Z,9.47
2018-07-13T03:22:31.721Z,8.97
2018-07-13T03:25:00.150Z,9.70
2018-07-13T03:27:28.602Z,9.47
2018-07-13T03:29:56.979Z,13.70
2018-07-13T03:32:25.381Z,10.27
2018-07-13T03:34:53.840Z,9.40
2018-07-13T03:37:22.201Z,13.03
2018-07-13T03:39:50.636Z,10.70
2018-07-13T03:42:18.734Z,10.50
2018-07-13T03:44:47.114Z,10.00
2018-07-13T03:47:15.460Z,8.97
2018-07-13T03:49:43.876Z,10.33
2018-07-13T03:52:12.216Z,10.40
2018-07-13T03:54:40.585Z,16.73
2018-07-13T03:57:09.013Z,10.63
2018-07-13T03:59:37.458Z,10.20
2018-07-13T04:02:06.122Z,10.07
2018-07-13T04:04:34.516Z,10.10
2018-07-13T04:07:02.666Z,10.83
2018-07-13T04:09:30.965Z,9.77
2018-07-13T04:11:59.324Z,9.77
2018-07-13T04:14:27.708Z,9.67
2018-07-13T04:16:56.190Z,13.80
2018-07-13T04:19:24.593Z,12.30
2018-07-13T04:21:53.266Z,10.20
2018-07-13T04:24:21.728Z,10.67
2018-07-13T04:26:50.220Z,9.90
2018-07-13T04:29:18.676Z,12.57
2018-07-13T04:31:47.396Z,10.00
2018-07-13T04:34:15.958Z,9.90
2018-07-13T04:36:44.369Z,10.03
2018-07-13T04:39:13.621Z,9.40
2018-07-13T04:41:42.189Z,9.60
2018-07-13T04:44:10.633Z,10.80
2018-07-13T04:46:39.073Z,9.50
2018-07-13T04:49:07.548Z,9.53
2018-07-13T04:51:36.029Z,9.93
2018-07-13T04:54:04.443Z,12.60
2018-07-13T04:56:33.198Z,10.20
2018-07-13T04:59:01.682Z,10.53
2018-07-13T05:01:30.105Z,9.73
2018-07-13T05:03:58.561Z,11.53
2018-07-13T05:06:27.140Z,9.67
2018-07-13T05:08:55.662Z,10.40
2018-07-13T05:11:24.126Z,9.73
2018-07-13T05:13:52.611Z,9.80
2018-07-13T05:16:21.400Z,10.60
2018-07-13T05:18:49.814Z,10.37
2018-07-13T05:21:18.359Z,9.60
2018-07-13T05:23:47.053Z,10.27
2018-07-13T05:26:15.516Z,9.47
2018-07-13T05:28:43.945Z,10.90
2018-07-13T05:31:12.917Z,18.60
2018-07-13T05:33:41.378Z,12.27
2018-07-13T05:36:09.977Z,18.63
2018-07-13T05:38:38.467Z,13.23
2018-07-13T05:41:06.949Z,16.40
2018-07-13T05:43:35.449Z,13.37
2018-07-13T05:46:03.946Z,14.10
2018-07-13T05:48:32.868Z,13.63
2018-07-13T05:51:01.412Z,16.20
2018-07-13T05:53:29.915Z,14.20
2018-07-13T05:55:58.385Z,12.93
2018-07-13T05:58:26.849Z,12.73
2018-07-13T06:00:55.313Z,12.47
2018-07-13T06:03:23.815Z,12.50
2018-07-13T06:05:52.389Z,11.97
2018-07-13T06:08:20.834Z,12.43
2018-07-13T06:10:49.229Z,12.53
2018-07-13T06:13:17.837Z,10.60
2018-07-13T06:15:46.225Z,10.20
2018-07-13T06:18:14.640Z,12.30
2018-07-13T06:20:43.017Z,12.33
2018-07-13T06:23:11.425Z,12.27
2018-07-13T06:25:39.775Z,12.90
2018-07-13T06:28:08.144Z,10.83
2018-07-13T06:30:36.524Z,13.80
2018-07-13T06:33:05.676Z,11.77
2018-07-13T06:35:34.125Z,10.53
2018-07-13T06:38:02.583Z,14.67
2018-07-13T06:40:31.054Z,9.57
2018-07-13T06:42:59.452Z,10.23
2018-07-13T06:45:27.950Z,10.80
2018-07-13T06:47:56.382Z,9.40
2018-07-13T06:50:24.915Z,16.90
2018-07-13T06:52:53.212Z,12.37
2018-07-13T06:55:21.646Z,13.50
2018-07-13T06:58:01.330Z,11.50
2018-07-13T07:01:02.516Z,12.30
2018-07-13T07:03:32.536Z,11.80
2018-07-13T07:06:07.988Z,14.20
2018-07-13T07:08:37.776Z,12.23
2018-07-13T07:11:06.693Z,10.27
2018-07-13T07:13:38.090Z,19.70
2018-07-13T07:16:06.680Z,10.63
2018-07-13T07:18:35.228Z,11.10
2018-07-13T07:21:03.668Z,14.27
2018-07-13T07:23:32.785Z,13.67
2018-07-13T07:26:01.901Z,17.80
2018-07-13T07:28:30.449Z,11.47
2018-07-13T07:30:59.946Z,12.83
2018-07-13T07:33:28.441Z,15.07
2018-07-13T07:35:56.829Z,11.17
2018-07-13T07:38:25.685Z,11.33
2018-07-13T07:40:54.108Z,12.03
2018-07-13T07:43:22.554Z,10.73
2018-07-13T07:45:50.933Z,10.80
2018-07-13T07:48:19.324Z,13.13
2018-07-13T07:50:47.915Z,11.30
2018-07-13T07:53:16.282Z,11.10
2018-07-13T07:55:44.644Z,14.70
2018-07-13T07:58:13.105Z,10.67
2018-07-13T08:00:41.192Z,10.37
2018-07-13T08:03:09.591Z,11.53
2018-07-13T08:05:37.966Z,11.77
2018-07-13T08:08:06.489Z,9.80
2018-07-13T08:10:34.873Z,12.07
2018-07-13T08:13:03.277Z,9.63
2018-07-13T08:15:31.670Z,13.20
2018-07-13T08:18:00.038Z,10.63
2018-07-13T08:20:32.137Z,10.63
2018-07-13T08:23:02.242Z,10.70
2018-07-13T08:25:30.953Z,10.77
2018-07-13T08:28:01.286Z,10.33
2018-07-13T08:30:42.592Z,9.30
2018-07-13T08:33:10.982Z,10.00
2018-07-13T08:35:39.371Z,9.83
2018-07-13T08:38:07.867Z,10.60
2018-07-13T08:40:36.305Z,10.13
2018-07-13T08:43:04.744Z,11.20
2018-07-13T08:45:33.121Z,10.97
2018-07-13T08:48:01.507Z,10.10
2018-07-13T08:50:30.210Z,9.77
2018-07-13T08:52:59.488Z,8.50
2018-07-13T08:55:28.026Z,7.63
2018-07-13T08:57:56.662Z,9.30
2018-07-13T09:00:25.106Z,12.73
2018-07-13T09:02:53.492Z,8.87
2018-07-13T09:05:21.923Z,9.17
2018-07-13T09:07:50.359Z,10.00
2018-07-13T09:10:18.805Z,9.80
2018-07-13T09:12:47.276Z,11.43
2018-07-13T09:15:15.665Z,10.40
2018-07-13T09:17:44.109Z,9.80
2018-07-13T09:20:13.402Z,10.77
2018-07-13T09:22:41.905Z,8.97
2018-07-13T09:25:11.072Z,11.83
2018-07-13T09:27:40.297Z,8.43
2018-07-13T09:30:09.883Z,8.60
2018-07-13T09:32:38.332Z,8.30
2018-07-13T09:35:06.412Z,8.00
2018-07-13T09:37:35.232Z,9.90
2018-07-13T09:40:03.749Z,11.10
2018-07-13T09:42:32.213Z,9.87
2018-07-13T09:45:00.651Z,9.80
2018-07-13T09:47:29.045Z,8.90
2018-07-13T09:49:57.496Z,8.50
2018-07-13T09:52:26.014Z,10.70
2018-07-13T09:54:54.372Z,8.40
2018-07-13T09:57:22.873Z,7.87
2018-07-13T09:59:51.301Z,10.13
2018-07-13T10:02:19.728Z,8.53
2018-07-13T10:04:48.140Z,7.80
2018-07-13T10:07:16.642Z,7.87
2018-07-13T10:09:45.065Z,8.97
2018-07-13T10:12:13.522Z,7.70
2018-07-13T10:14:41.923Z,9.10
2018-07-13T10:17:10.339Z,7.57
2018-07-13T10:19:38.815Z,8.40
2018-07-13T10:22:07.230Z,7.10
2018-07-13T10:24:35.705Z,6.60
2018-07-13T10:27:04.161Z,6.97
2018-07-13T10:29:35.571Z,9.53
2018-07-13T10:32:04.090Z,7.30
2018-07-13T10:34:33.100Z,6.80
2018-07-13T10:37:04.010Z,6.53
2018-07-13T10:39:32.905Z,6.83
2018-07-13T10:42:01.690Z,8.37
2018-07-13T10:44:30.072Z,6.70
2018-07-13T10:46:58.573Z,5.90
2018-07-13T10:49:27.069Z,6.50
2018-07-13T10:51:55.492Z,7.00
2018-07-13T10:54:23.903Z,6.33
2018-07-13T10:56:52.536Z,8.60
2018-07-13T10:59:20.899Z,6.77
2018-07-13T11:01:49.270Z,5.00
2018-07-13T11:04:17.659Z,6.70
2018-07-13T11:06:46.064Z,7.10
2018-07-13T11:09:14.524Z,6.73
2018-07-13T11:11:42.865Z,5.10
2018-07-13T11:14:11.635Z,6.20
2018-07-13T11:16:40.427Z,10.20
2018-07-13T11:19:08.833Z,4.70
2018-07-13T11:21:37.231Z,4.00
2018-07-13T11:24:05.693Z,3.20
2018-07-13T11:26:34.104Z,4.20
2018-07-13T11:29:02.539Z,4.60
2018-07-13T11:31:31.039Z,4.23
2018-07-13T11:33:59.522Z,4.07
2018-07-13T11:36:27.919Z,4.23
2018-07-13T11:38:56.368Z,4.00
2018-07-13T11:41:24.725Z,4.10
2018-07-13T11:43:53.142Z,3.90
2018-07-13T11:46:21.537Z,5.30
2018-07-13T11:48:49.986Z,7.10
2018-07-13T11:51:18.374Z,3.93
2018-07-13T11:53:46.768Z,3.73
2018-07-13T11:56:15.422Z,3.97
2018-07-13T11:58:43.865Z,3.77
2018-07-13T12:01:12.336Z,4.07
2018-07-13T12:03:40.738Z,3.30
2018-07-13T12:06:09.158Z,6.73
2018-07-13T12:08:37.711Z,3.13
2018-07-13T12:11:06.114Z,3.10
2018-07-13T12:13:34.508Z,4.07
2018-07-13T12:16:02.908Z,4.27
2018-07-13T12:18:31.345Z,4.03
2018-07-13T12:20:59.809Z,4.07
2018-07-13T12:23:28.209Z,4.00
2018-07-13T12:25:56.649Z,3.60
2018-07-13T12:28:25.032Z,3.50
2018-07-13T12:30:53.459Z,3.67
2018-07-13T12:33:21.838Z,4.10
2018-07-13T12:35:50.330Z,4.17
2018-07-13T12:38:18.774Z,4.00
2018-07-13T12:40:47.182Z,3.33
2018-07-13T12:43:15.548Z,5.00
2018-07-13T12:45:43.949Z,2.93
2018-07-13T12:48:12.358Z,3.13
2018-07-13T12:50:40.768Z,3.13
2018-07-13T12:53:09.173Z,12.53
2018-07-13T12:55:37.681Z,3.47
2018-07-13T12:58:06.408Z,4.03
2018-07-13T13:00:34.852Z,5.70
2018-07-13T13:03:03.239Z,7.43
2018-07-13T13:05:31.622Z,4.60
2018-07-13T13:08:00.089Z,4.20
2018-07-13T13:10:28.537Z,3.43
2018-07-13T13:12:56.941Z,6.30
2018-07-13T13:15:25.549Z,4.40
2018-07-13T13:17:53.881Z,5.53
2018-07-13T13:20:22.306Z,5.27
2018-07-13T13:22:50.749Z,4.50
2018-07-13T13:25:19.142Z,4.30
2018-07-13T13:27:47.533Z,4.40
2018-07-13T13:30:15.994Z,4.13
2018-07-13T13:32:44.440Z,3.77
2018-07-13T13:35:12.979Z,4.05
2018-07-13T13:37:41.439Z,3.80
2018-07-13T13:40:09.916Z,3.70
2018-07-13T13:42:38.344Z,4.10
2018-07-13T13:45:06.839Z,3.63
2018-07-13T13:47:35.324Z,3.60
2018-07-13T13:50:03.823Z,3.70
2018-07-13T13:52:32.333Z,4.00
2018-07-13T13:55:00.757Z,3.97
2018-07-13T13:57:29.185Z,3.90
2018-07-13T13:59:57.641Z,3.93
2018-07-13T14:02:26.385Z,4.23
2018-07-13T14:04:54.821Z,4.60
2018-07-13T14:07:23.217Z,4.07
2018-07-13T14:09:51.608Z,3.77
2018-07-13T14:12:20.081Z,4.33
2018-07-13T14:14:48.475Z,4.13
2018-07-13T14:17:16.916Z,4.30
2018-07-13T14:19:45.360Z,4.10
2018-07-13T14:22:13.821Z,3.90
2018-07-13T14:24:42.181Z,3.97
2018-07-13T14:27:10.533Z,5.27
2018-07-13T14:29:38.891Z,4.13
2018-07-13T14:32:07.340Z,3.77
2018-07-13T14:34:35.795Z,4.93
2018-07-13T14:37:04.242Z,3.93
2018-07-13T14:39:32.666Z,3.93
2018-07-13T14:42:01.060Z,8.23
2018-07-13T14:44:29.464Z,4.03
2018-07-13T14:46:57.982Z,4.43
2018-07-13T14:49:26.333Z,4.00
2018-07-13T14:51:54.722Z,4.03
2018-07-13T14:54:23.137Z,3.90
2018-07-13T14:56:51.528Z,4.53
2018-07-13T14:59:19.956Z,3.30
2018-07-13T15:01:48.411Z,4.00
2018-07-13T15:04:16.929Z,4.30
2018-07-13T15:06:45.435Z,3.67
2018-07-13T15:09:13.815Z,4.20
2018-07-13T15:11:42.364Z,3.70
2018-07-13T15:14:10.792Z,4.07
2018-07-13T15:16:39.188Z,3.97
2018-07-13T15:19:07.597Z,3.57
2018-07-13T15:21:35.972Z,3.73
2018-07-13T15:24:04.389Z,4.90
2018-07-13T15:26:32.865Z,4.53
2018-07-13T15:29:01.286Z,4.07
2018-07-13T15:31:29.705Z,4.10
2018-07-13T15:33:58.057Z,3.70
2018-07-13T15:36:26.445Z,3.80
2018-07-13T15:38:54.811Z,4.37
2018-07-13T15:41:23.182Z,4.43
2018-07-13T15:43:51.581Z,4.23
2018-07-13T15:46:19.987Z,4.20
2018-07-13T15:48:48.434Z,4.70
2018-07-13T15:51:17.034Z,4.93
2018-07-13T15:53:45.446Z,4.80
2018-07-13T15:56:13.845Z,5.63
2018-07-13T15:58:42.381Z,5.07
2018-07-13T16:01:10.725Z,5.13
2018-07-13T16:03:39.168Z,5.83
2018-07-13T16:06:07.680Z,5.03
2018-07-13T16:08:36.072Z,10.73
2018-07-13T16:11:04.513Z,5.50
2018-07-13T16:13:32.881Z,5.10
2018-07-13T16:16:01.282Z,5.07
2018-07-13T16:18:29.686Z,5.10
2018-07-13T16:20:58.080Z,5.20
2018-07-13T16:23:26.473Z,5.00
2018-07-13T16:25:54.916Z,4.50
2018-07-13T16:28:23.376Z,8.97
2018-07-13T16:30:51.745Z,5.23
2018-07-13T16:33:20.221Z,4.83
2018-07-13T16:35:48.600Z,5.33
2018-07-13T16:38:17.670Z,4.97
2018-07-13T16:40:46.080Z,4.53
2018-07-13T16:43:14.648Z,4.23
2018-07-13T16:45:43.037Z,4.33
2018-07-13T16:48:11.536Z,6.43
2018-07-13T16:50:40.137Z,5.00
2018-07-13T16:53:08.425Z,5.40
2018-07-13T16:55:36.823Z,5.63
2018-07-13T16:58:05.212Z,4.97
2018-07-13T17:00:33.697Z,4.53
2018-07-13T17:03:02.229Z,4.90
2018-07-13T17:05:30.678Z,4.40
2018-07-13T17:07:59.116Z,4.97
2018-07-13T17:10:27.534Z,4.50
2018-07-13T17:12:55.954Z,4.83
2018-07-13T17:15:24.430Z,4.00
2018-07-13T17:17:52.805Z,4.23
2018-07-13T17:20:21.420Z,4.37
2018-07-13T17:22:49.767Z,5.07
2018-07-13T17:25:18.241Z,4.77
2018-07-13T17:27:46.689Z,4.70
2018-07-13T17:30:15.096Z,4.83
2018-07-13T17:32:43.560Z,4.93
2018-07-13T17:35:12.058Z,5.33
2018-07-13T17:37:40.464Z,5.10
2018-07-13T17:40:08.859Z,5.33
2018-07-13T17:42:37.453Z,4.47
2018-07-13T17:45:06.449Z,6.13
2018-07-13T17:47:34.938Z,4.90
2018-07-13T17:50:03.422Z,3.93
2018-07-13T17:52:31.887Z,4.47
2018-07-13T17:55:00.367Z,3.97
2018-07-13T17:57:28.887Z,4.00
2018-07-13T17:59:57.304Z,4.03
2018-07-13T18:02:25.800Z,4.10
2018-07-13T18:04:54.334Z,4.50
2018-07-13T18:07:23.391Z,3.73
2018-07-13T18:09:51.843Z,4.40
2018-07-13T18:12:20.276Z,8.03
2018-07-13T18:14:48.748Z,3.70
2018-07-13T18:17:17.178Z,4.50
2018-07-13T18:19:45.565Z,4.40
2018-07-13T18:22:13.993Z,4.87
2018-07-13T18:24:42.400Z,4.33
2018-07-13T18:27:11.641Z,4.10
2018-07-13T18:29:40.141Z,4.60
2018-07-13T18:32:08.612Z,6.80
2018-07-13T18:34:37.111Z,4.83
2018-07-13T18:37:06.326Z,4.63
2018-07-13T18:39:34.761Z,4.53
2018-07-13T18:42:03.213Z,5.03
2018-07-13T18:44:31.636Z,3.73
2018-07-13T18:47:00.252Z,4.63
2018-07-13T18:49:28.772Z,4.70
2018-07-13T18:51:58.645Z,4.60
2018-07-13T18:54:27.275Z,5.23
2018-07-13T18:56:55.770Z,4.97
2018-07-13T18:59:24.212Z,5.00
2018-07-13T19:01:52.643Z,5.30
2018-07-13T19:04:21.057Z,5.40
2018-07-13T19:06:49.512Z,9.23
2018-07-13T19:09:17.974Z,5.27
2018-07-13T19:11:46.597Z,5.57
2018-07-13T19:14:15.193Z,5.67
2018-07-13T19:16:43.819Z,5.57
2018-07-13T19:19:12.556Z,6.00
2018-07-13T19:21:41.317Z,11.43
2018-07-13T19:24:09.848Z,8.33
2018-07-13T19:26:38.344Z,5.97
2018-07-13T19:29:06.703Z,7.20
2018-07-13T19:31:35.091Z,5.70
2018-07-13T19:34:03.648Z,8.17
2018-07-13T19:36:32.224Z,5.53
2018-07-13T19:39:00.884Z,9.97
2018-07-13T19:41:29.352Z,8.00
2018-07-13T19:43:57.814Z,7.10
2018-07-13T19:46:26.311Z,6.40
2018-07-13T19:48:54.807Z,6.20
2018-07-13T19:51:23.309Z,7.97
2018-07-13T19:53:51.740Z,10.53
2018-07-13T19:56:20.201Z,6.27
2018-07-13T19:58:48.483Z,7.53
2018-07-13T20:01:16.673Z,6.60
2018-07-13T20:03:45.037Z,6.53
2018-07-13T20:06:13.440Z,6.93
2018-07-13T20:08:41.847Z,12.17
2018-07-13T20:11:10.360Z,6.80
2018-07-13T20:13:38.812Z,9.33
2018-07-13T20:16:07.446Z,6.47
2018-07-13T20:18:35.962Z,6.70
2018-07-13T20:21:04.585Z,5.87
2018-07-13T20:23:33.381Z,10.37
2018-07-13T20:26:01.968Z,5.63
2018-07-13T20:28:30.724Z,6.13
2018-07-13T20:30:59.389Z,8.20
2018-07-13T20:33:27.943Z,6.73
2018-07-13T20:35:56.430Z,6.30
2018-07-13T20:38:24.881Z,6.10
2018-07-13T20:40:53.265Z,6.97
2018-07-13T20:43:21.813Z,6.57
2018-07-13T20:45:50.765Z,7.23
2018-07-13T20:48:19.169Z,6.77
2018-07-13T20:50:47.565Z,6.20
2018-07-13T20:53:16.005Z,5.90
2018-07-13T20:55:44.431Z,12.70
2018-07-13T20:58:13.041Z,6.23
2018-07-13T21:00:41.767Z,9.13
2018-07-13T21:03:10.196Z,6.47
2018-07-13T21:05:38.641Z,6.67
2018-07-13T21:08:07.242Z,6.33
2018-07-13T21:10:35.652Z,11.10
2018-07-13T21:13:04.020Z,7.03
2018-07-13T21:15:32.415Z,6.43
2018-07-13T21:18:00.794Z,6.23
2018-07-13T21:20:29.204Z,7.80
2018-07-13T21:22:57.568Z,9.13
2018-07-13T21:25:26.035Z,6.60
2018-07-13T21:27:54.462Z,6.20
2018-07-13T21:30:22.856Z,10.20
2018-07-13T21:32:51.233Z,6.87
2018-07-13T21:35:19.649Z,8.33
2018-07-13T21:37:47.990Z,6.50
2018-07-13T21:40:16.398Z,6.97
2018-07-13T21:42:44.893Z,6.73
2018-07-13T21:45:13.363Z,7.30
2018-07-13T21:47:41.739Z,6.80
2018-07-13T21:50:10.136Z,7.33
2018-07-13T21:52:38.579Z,6.97
2018-07-13T21:55:06.996Z,8.10
2018-07-13T21:57:35.383Z,7.27
2018-07-13T22:00:04.037Z,6.50
2018-07-13T22:02:32.471Z,7.07
2018-07-13T22:05:00.784Z,6.90
2018-07-13T22:07:29.469Z,8.93
2018-07-13T22:09:57.855Z,13.97
2018-07-13T22:12:26.280Z,23.83
2018-07-13T22:14:54.793Z,12.83
2018-07-13T22:17:24.108Z,7.90
2018-07-13T22:19:52.631Z,10.80
2018-07-13T22:22:21.105Z,15.63
2018-07-13T22:24:49.489Z,8.73
2018-07-13T22:27:17.912Z,8.13
2018-07-13T22:29:46.379Z,7.77
2018-07-13T22:32:14.889Z,8.07
2018-07-13T22:34:43.404Z,7.53
2018-07-13T22:37:11.880Z,7.40
2018-07-13T22:39:40.260Z,11.37
2018-07-13T22:42:08.763Z,8.20
2018-07-13T22:44:37.173Z,16.50
2018-07-13T22:47:05.740Z,8.27
2018-07-13T22:49:34.220Z,13.20
2018-07-13T22:52:02.601Z,8.10
2018-07-13T22:54:31.056Z,9.10
2018-07-13T22:56:59.475Z,8.30
2018-07-13T22:59:27.867Z,11.00
2018-07-13T23:01:56.339Z,8.30
2018-07-13T23:04:24.791Z,9.43
2018-07-13T23:06:53.229Z,8.67
2018-07-13T23:09:21.733Z,9.37
2018-07-13T23:11:50.258Z,9.27
2018-07-13T23:14:18.666Z,8.80
2018-07-13T23:16:47.156Z,8.97
2018-07-13T23:19:15.558Z,8.97
2018-07-13T23:21:43.959Z,9.07
2018-07-13T23:24:12.369Z,9.10
2018-07-13T23:26:40.884Z,8.40
2018-07-13T23:29:09.281Z,10.83
2018-07-13T23:31:37.665Z,8.80
2018-07-13T23:34:06.088Z,8.57
2018-07-13T23:36:34.475Z,9.60
2018-07-13T23:39:02.957Z,8.67
2018-07-13T23:41:31.410Z,8.87
2018-07-13T23:43:59.835Z,12.33
2018-07-13T23:46:28.226Z,13.47
2018-07-13T23:48:56.650Z,11.30
2018-07-13T23:51:24.820Z,9.07
2018-07-13T23:53:52.951Z,9.30
2018-07-13T23:56:21.050Z,9.33
2018-07-13T23:58:49.471Z,9.23
